EDDHETNL

Guest
Details From EDDH - Hamburg
To ETNL - Laage
Flight Number -
Tags Generated
Created
Modified
Stats Distance 83 nm / 153 km
Max Altitude 0 ft / 0 m
Waypoints 2
Social Downloads 0
Likes 0
Share VATSIM

Download

Looking for another format? Having issues loading an existing format? Contact us
Advertisement - Login to hide

Notes

Generated

Route

EDDH ETNL

ID Type Via Altitude Latitude Longitude Leg Dist Tot Dist Heading (true) Name
O EDDH APT - 0 ft / 0 m 53.65441˚ 9.97521˚ - 0 nm - -
O ETNL APT - 0 ft / 0 m 53.91967˚ 12.26033˚ 82 nm 82 nm 78° / 80° -

Altitude Profile

Advertisement - Login to hide

EDDH

Details ICAO EDDH (HAM)
Name Hamburg
Region Germany - Civil
Timezone Europe/Berlin (UTC+1.0)
Stats Elevation 53 ft / 16 m (AMSL)
Location 53.633665° 9.985235°
Runways 2
Magnetic Variation 2.787° E

METAR

EDDH 171720Z 21005KT 9999 FEW012 SCT250 M01/M02 Q1021 TEMPO 4000 BCFG

Decode

TAF

TAF EDDH 171100Z 1712/1818 29005KT 9999 SCT025 BECMG 1714/1716 21003KT BECMG 1722/1724 17008KT BECMG 1800/1802 BKN007 TEMPO 1800/1806 3500 RASN BKN004

Decode

Departure Runways

ID Width Length Bearing (true) Bearing (mag) Surface Threshold Offset Overrun Length
05 151 ft / 46 m 10,647 ft / 3,245 m 50.18° 47.39° Asphalt 978 ft / 298 m 194 ft / 59 m
15 151 ft / 46 m 12,013 ft / 3,662 m 152.89° 150.10° Asphalt 0 ft / 0 m 194 ft / 59 m
23 151 ft / 46 m 10,647 ft / 3,245 m 230.22° 227.43° Asphalt 509 ft / 155 m 240 ft / 73 m
33 151 ft / 46 m 12,013 ft / 3,662 m 332.91° 330.12° Asphalt 1,463 ft / 446 m 164 ft / 50 m

ETNL

Details ICAO ETNL (RLG)
Name Laage
Region Germany - Military
Timezone Europe/Berlin (UTC+1.0)
Stats Elevation 138 ft / 42 m (AMSL)
Location 53.918084° 12.279250°
Runways 1
Magnetic Variation 3.520° E

METAR

ETNL 171720Z 27002KT 9999 BKN024 00/M02 Q1020 WHT

Decode

TAF

Not found

Destination Runways

ID Width Length Bearing (true) Bearing (mag) Surface Threshold Offset Overrun Length
10 148 ft / 45 m 8,213 ft / 2,503 m 98.07° 94.55° Concrete 0 ft / 0 m 1,001 ft / 305 m
28 148 ft / 45 m 8,213 ft / 2,503 m 278.10° 274.58° Concrete 0 ft / 0 m 1,001 ft / 305 m

Approach Navaids

Runway Type Ident Frequency Range Bearing (true) Bearing (mag) Slope Elevation
10 Localiser ILAE 108.55 MHz 18 nm / 33 km 97.79° 94.27° - 128 ft / 39 m (AMSL)
10 Glidescope ILAE 108.55 MHz 10 nm / 19 km 98.09° 94.57° 3.00° 186 ft / 57 m (AMSL)
28 Localiser ILAW 108.30 MHz 18 nm / 33 km 277.98° 274.46° - 157 ft / 48 m (AMSL)
28 Glidescope ILAW 108.30 MHz 10 nm / 19 km 278.09° 274.57° 3.00° 159 ft / 48 m (AMSL)

Popular Alternatives